Mesa, Arizona
Current Conditions -  °F | °C
As of 5:47 AM on Saturday 20 Dec 2014 (Local Time) from KCHD Reporting Station
Broken Clouds Broken Clouds  
Wind Chill: 35°   Ceiling: 20000
Heat Index: 41°   Visibility: 15mi
Dew Point: 41°   Wind: 9mph
Humidity: 100%   Direction: 80°E
Pressure: 30.1"   Gusts: NA
Location:  33.42°N, 111.83°W
Report Text: KCHD 201247Z 08008KT 15SM BKN200 05/05 A3010
Loading
Personal Weather Stations






























Interactive Weather Map New forecast layout! Learn more

10-Day Weather Forecast

Advertisements
Track Severe Weather on mobile